Time;durP1;ratioP1;P1;durP2;ratioP2;P2;SDS_P1;SDS_P2;PMS_P1;PMS_P2;Temp;Humidity;BMP_temperature;BMP_pressure;BME280_temperature;BME280_humidity;BME280_pressure;Samples;Min_cycle;Max_cycle;Signal;HPM_P1;HPM_P2
2023/08/21 00:01:21;;;;;;;4.32;1.80;;;16.70;99.90;;;;;;5087702;28;20071;-74
2023/08/21 00:03:46;;;;;;;6.70;2.30;;;16.70;99.90;;;;;;5070178;28;20115;-74
2023/08/21 00:06:12;;;;;;;3.85;1.90;;;16.70;99.90;;;;;;5070109;28;20371;-74
2023/08/21 00:08:37;;;;;;;4.28;1.75;;;16.70;99.90;;;;;;5070297;28;20040;-76
2023/08/21 00:11:03;;;;;;;3.88;2.22;;;16.70;99.90;;;;;;5080043;28;20482;-74
2023/08/21 00:13:29;;;;;;;3.35;2.20;;;16.60;99.90;;;;;;5062835;28;20143;-74
2023/08/21 00:15:55;;;;;;;3.55;2.15;;;16.60;99.90;;;;;;5084923;28;20510;-75
2023/08/21 00:18:21;;;;;;;5.15;2.00;;;16.50;99.90;;;;;;5054247;28;20089;-74
2023/08/21 00:20:46;;;;;;;3.95;2.13;;;16.50;99.90;;;;;;5070810;28;20506;-75
2023/08/21 00:23:12;;;;;;;4.07;2.42;;;16.50;99.90;;;;;;5087617;28;20063;-74
2023/08/21 00:25:38;;;;;;;6.20;2.47;;;16.60;99.90;;;;;;5087361;28;20036;-76
2023/08/21 00:28:04;;;;;;;4.13;2.10;;;16.50;99.90;;;;;;5068778;28;20051;-77
2023/08/21 00:30:29;;;;;;;4.22;2.45;;;16.50;99.90;;;;;;5063791;28;20414;-75
2023/08/21 00:32:55;;;;;;;5.28;2.38;;;16.50;99.90;;;;;;5084992;28;20089;-75
2023/08/21 00:35:20;;;;;;;3.45;1.80;;;16.40;99.90;;;;;;5068998;28;20070;-75
2023/08/21 00:37:46;;;;;;;3.13;1.73;;;16.40;99.90;;;;;;5087770;28;20777;-74
2023/08/21 00:40:13;;;;;;;3.55;1.65;;;16.40;99.90;;;;;;5066238;28;20048;-74
2023/08/21 00:42:39;;;;;;;3.15;1.90;;;16.50;99.90;;;;;;5068561;28;20036;-76
2023/08/21 00:45:08;;;;;;;3.35;1.65;;;16.40;99.90;;;;;;5082142;28;20371;-75
2023/08/21 00:47:34;;;;;;;3.80;2.42;;;16.40;99.90;;;;;;5052649;28;20055;-75
2023/08/21 00:50:00;;;;;;;2.80;1.83;;;16.40;99.90;;;;;;5069451;28;20044;-75
2023/08/21 00:52:25;;;;;;;3.67;2.00;;;16.40;99.90;;;;;;5086608;28;20044;-75
2023/08/21 00:54:51;;;;;;;4.43;2.10;;;16.30;99.90;;;;;;5068680;28;20047;-75
2023/08/21 00:57:17;;;;;;;3.53;1.85;;;16.30;99.90;;;;;;5068891;28;20110;-75
2023/08/21 00:59:43;;;;;;;3.90;1.88;;;16.30;99.90;;;;;;5074908;28;20039;-75
2023/08/21 01:02:09;;;;;;;2.97;1.65;;;16.30;99.90;;;;;;5066486;28;20124;-76
2023/08/21 01:04:35;;;;;;;2.92;2.13;;;16.30;99.90;;;;;;5067279;28;20044;-75
2023/08/21 01:07:01;;;;;;;4.43;1.40;;;16.30;99.90;;;;;;5067024;28;20043;-75
2023/08/21 01:09:45;;;;;;;3.35;1.60;;;16.20;99.90;;;;;;5048364;28;20056;-75
2023/08/21 01:12:14;;;;;;;2.90;1.88;;;16.30;99.90;;;;;;5065921;28;20051;-75
2023/08/21 01:15:00;;;;;;;3.25;1.92;;;16.20;99.90;;;;;;5056727;28;20082;-75
2023/08/21 01:17:28;;;;;;;4.07;1.50;;;16.20;99.90;;;;;;5033197;28;20032;-75
2023/08/21 01:19:55;;;;;;;3.55;1.65;;;16.20;99.90;;;;;;5074710;28;20044;-75
2023/08/21 01:22:25;;;;;;;2.75;1.67;;;16.20;99.90;;;;;;5066311;28;20091;-75
2023/08/21 01:24:50;;;;;;;4.68;1.70;;;16.20;99.90;;;;;;5077193;28;20376;-75
2023/08/21 01:27:16;;;;;;;2.97;1.38;;;16.20;99.90;;;;;;5068183;28;20039;-75
2023/08/21 01:29:42;;;;;;;2.63;1.60;;;16.20;99.90;;;;;;5067411;28;20410;-75
2023/08/21 01:32:15;;;;;;;2.85;2.00;;;16.20;99.90;;;;;;5086342;28;20453;-77
2023/08/21 01:34:42;;;;;;;2.85;1.38;;;16.20;99.90;;;;;;5051723;28;20040;-75
2023/08/21 01:37:08;;;;;;;4.80;1.70;;;16.20;99.90;;;;;;5068436;28;20048;-77
2023/08/21 01:39:34;;;;;;;9.30;2.20;;;16.20;99.90;;;;;;5049691;28;20793;-76
2023/08/21 01:42:00;;;;;;;3.22;1.55;;;16.20;99.90;;;;;;5078554;28;20045;-75
2023/08/21 01:44:26;;;;;;;3.85;1.67;;;16.20;99.90;;;;;;5056519;28;20413;-75
2023/08/21 01:46:53;;;;;;;1.45;1.30;;;16.20;99.90;;;;;;5076313;28;20040;-75
2023/08/21 01:49:19;;;;;;;2.85;1.63;;;16.20;99.90;;;;;;5070117;28;20044;-75
2023/08/21 01:51:45;;;;;;;2.35;1.30;;;16.10;99.90;;;;;;5076005;28;20036;-75
2023/08/21 01:54:11;;;;;;;2.42;1.10;;;16.10;99.90;;;;;;5083970;28;20040;-75
2023/08/21 01:56:37;;;;;;;3.10;1.13;;;16.10;99.90;;;;;;5072705;28;20037;-75
2023/08/21 01:59:04;;;;;;;4.43;1.30;;;16.10;99.90;;;;;;5076698;28;20485;-75
2023/08/21 02:01:29;;;;;;;5.63;1.73;;;16.10;99.90;;;;;;5084863;28;20047;-75
2023/08/21 02:03:55;;;;;;;1.83;1.70;;;16.00;99.90;;;;;;5066140;28;20044;-75
2023/08/21 02:06:20;;;;;;;3.22;1.20;;;16.00;99.90;;;;;;5087132;28;20075;-75
2023/08/21 02:08:46;;;;;;;2.40;1.15;;;16.00;99.90;;;;;;5038846;28;20043;-75
2023/08/21 02:11:11;;;;;;;2.55;1.17;;;16.00;99.90;;;;;;5084840;28;20039;-75
2023/08/21 02:13:37;;;;;;;2.63;1.75;;;15.90;99.90;;;;;;5044152;28;20040;-75
2023/08/21 02:16:03;;;;;;;1.15;1.05;;;15.90;99.90;;;;;;5068023;28;20036;-75
2023/08/21 02:18:29;;;;;;;3.78;1.50;;;15.90;99.90;;;;;;5064031;28;20124;-75
2023/08/21 02:20:54;;;;;;;3.40;1.40;;;15.90;99.90;;;;;;5073397;28;20044;-75
2023/08/21 02:23:20;;;;;;;2.03;1.38;;;15.80;99.90;;;;;;5077983;28;20093;-76
2023/08/21 02:25:46;;;;;;;1.77;1.23;;;15.80;99.90;;;;;;5079730;28;20375;-75
2023/08/21 02:28:11;;;;;;;2.22;1.30;;;15.80;99.90;;;;;;5059128;28;20483;-75
2023/08/21 02:30:41;;;;;;;3.92;1.65;;;15.80;99.90;;;;;;5063144;28;20040;-75
2023/08/21 02:33:06;;;;;;;1.40;1.23;;;15.80;99.90;;;;;;5082561;28;20033;-75
2023/08/21 02:35:32;;;;;;;2.80;1.00;;;15.80;99.90;;;;;;5064950;28;20051;-78
2023/08/21 02:37:58;;;;;;;3.50;1.50;;;15.80;99.90;;;;;;5067310;28;20498;-75
2023/08/21 02:40:23;;;;;;;3.53;2.08;;;15.80;99.90;;;;;;5063111;28;20050;-75
2023/08/21 02:42:49;;;;;;;2.53;1.48;;;15.80;99.90;;;;;;5084434;28;20044;-75
2023/08/21 02:45:14;;;;;;;1.00;0.90;;;15.80;99.90;;;;;;5085225;28;20040;-75
2023/08/21 02:47:41;;;;;;;2.67;1.20;;;15.80;99.90;;;;;;5067489;28;20557;-75
2023/08/21 02:50:08;;;;;;;2.10;1.17;;;15.80;99.90;;;;;;5066758;28;20059;-75
2023/08/21 02:52:35;;;;;;;1.83;0.80;;;15.80;99.90;;;;;;5085367;28;20093;-75
2023/08/21 02:55:01;;;;;;;0.73;0.73;;;15.70;99.90;;;;;;5082005;28;20044;-75
2023/08/21 02:57:28;;;;;;;1.20;0.70;;;15.70;99.90;;;;;;5056822;28;20040;-75
2023/08/21 02:59:54;;;;;;;1.33;0.70;;;15.70;99.90;;;;;;5062412;28;20047;-75
2023/08/21 03:02:20;;;;;;;1.48;1.08;;;15.70;99.90;;;;;;5066209;28;20032;-75
2023/08/21 03:04:46;;;;;;;1.10;0.88;;;15.60;99.90;;;;;;5066122;28;20044;-75
2023/08/21 03:07:12;;;;;;;2.85;0.70;;;15.60;99.90;;;;;;5080538;28;20042;-74
2023/08/21 03:09:38;;;;;;;1.67;1.05;;;15.60;99.90;;;;;;5078166;28;20140;-77
2023/08/21 03:12:04;;;;;;;0.90;0.82;;;15.60;99.90;;;;;;5066258;28;20044;-75
2023/08/21 03:14:30;;;;;;;0.60;0.60;;;15.50;99.90;;;;;;5083535;28;20056;-75
2023/08/21 03:16:56;;;;;;;0.80;0.68;;;15.50;99.90;;;;;;5070834;28;20612;-75
2023/08/21 03:19:21;;;;;;;0.50;0.50;;;15.50;99.90;;;;;;5087652;28;20040;-75
2023/08/21 03:21:47;;;;;;;0.52;0.52;;;15.50;99.90;;;;;;5070729;28;20123;-75
2023/08/21 03:24:12;;;;;;;0.75;0.60;;;15.40;99.90;;;;;;5069888;28;20222;-75
2023/08/21 03:26:38;;;;;;;0.60;0.60;;;15.40;99.90;;;;;;5054419;28;20421;-76
2023/08/21 03:29:04;;;;;;;1.23;0.75;;;15.40;99.90;;;;;;5069737;28;20051;-75
2023/08/21 03:31:30;;;;;;;0.60;0.60;;;15.30;99.90;;;;;;5088365;28;20119;-75
2023/08/21 03:33:56;;;;;;;0.50;0.50;;;15.30;99.90;;;;;;5070538;28;20044;-75
2023/08/21 03:36:30;;;;;;;0.85;0.70;;;15.30;99.90;;;;;;5088405;28;20042;-75
2023/08/21 03:38:56;;;;;;;1.40;0.75;;;15.30;99.90;;;;;;5061544;28;20079;-75
2023/08/21 03:41:22;;;;;;;0.75;0.70;;;15.20;99.90;;;;;;5079133;28;20059;-75
2023/08/21 03:43:48;;;;;;;0.70;0.70;;;15.30;99.90;;;;;;5069227;28;20040;-75
2023/08/21 03:46:13;;;;;;;1.70;0.90;;;15.20;99.90;;;;;;5070557;28;20047;-75
2023/08/21 03:48:39;;;;;;;1.08;0.70;;;15.20;99.90;;;;;;5088772;28;20169;-76
2023/08/21 03:51:04;;;;;;;1.10;0.68;;;15.30;99.90;;;;;;5070367;28;20052;-75
2023/08/21 03:53:30;;;;;;;2.30;0.90;;;15.20;99.90;;;;;;5070447;28;20040;-75
2023/08/21 03:55:56;;;;;;;1.00;0.70;;;15.20;99.90;;;;;;5069362;28;20123;-75
2023/08/21 03:58:21;;;;;;;0.77;0.75;;;15.30;99.90;;;;;;5066000;28;20120;-75
2023/08/21 04:00:47;;;;;;;0.82;0.82;;;15.30;99.90;;;;;;5060384;28;20039;-75
2023/08/21 04:03:12;;;;;;;4.97;0.90;;;15.30;99.90;;;;;;5065432;28;20453;-75
2023/08/21 04:05:38;;;;;;;1.40;0.90;;;15.20;99.90;;;;;;5087467;28;20035;-76
2023/08/21 04:08:04;;;;;;;3.92;0.88;;;15.30;99.90;;;;;;5086738;28;20176;-75
2023/08/21 04:10:29;;;;;;;3.95;0.90;;;15.30;99.90;;;;;;5088044;28;20067;-75
2023/08/21 04:12:55;;;;;;;1.10;0.70;;;15.20;99.90;;;;;;5069058;28;20075;-75
2023/08/21 04:15:21;;;;;;;0.93;0.90;;;15.20;99.90;;;;;;5052785;28;20051;-75
2023/08/21 04:17:46;;;;;;;0.80;0.70;;;15.20;99.90;;;;;;5075504;28;20089;-75
2023/08/21 04:20:12;;;;;;;0.98;0.80;;;15.10;99.90;;;;;;5073023;28;20036;-75
2023/08/21 04:22:37;;;;;;;1.38;0.80;;;15.10;99.90;;;;;;5067784;28;20119;-76
2023/08/21 04:25:03;;;;;;;1.52;0.88;;;15.10;99.90;;;;;;5069162;28;20048;-75
2023/08/21 04:27:29;;;;;;;0.68;0.68;;;15.10;99.90;;;;;;5076968;28;20620;-75
2023/08/21 04:29:54;;;;;;;0.98;0.82;;;15.10;99.90;;;;;;5085903;28;20044;-75
2023/08/21 04:32:21;;;;;;;0.73;0.70;;;15.10;99.90;;;;;;5085719;28;20035;-75
2023/08/21 04:34:46;;;;;;;1.10;1.00;;;15.00;99.90;;;;;;5069127;28;20704;-76
2023/08/21 04:37:12;;;;;;;1.40;0.90;;;15.00;99.90;;;;;;5068787;28;20050;-75
2023/08/21 04:39:37;;;;;;;2.28;0.80;;;15.00;99.90;;;;;;5065350;28;20032;-77
2023/08/21 04:42:03;;;;;;;0.85;0.75;;;15.00;99.90;;;;;;5074530;28;20082;-75
2023/08/21 04:44:30;;;;;;;1.30;1.05;;;14.90;99.90;;;;;;5085268;28;20465;-76
2023/08/21 04:46:55;;;;;;;0.77;0.63;;;14.90;99.90;;;;;;5086611;28;20042;-75
2023/08/21 04:49:21;;;;;;;1.52;0.90;;;14.90;99.90;;;;;;5068412;28;20035;-75
2023/08/21 04:51:47;;;;;;;2.55;1.00;;;14.90;99.90;;;;;;5067883;28;20044;-75
2023/08/21 04:54:12;;;;;;;1.35;0.90;;;15.00;99.90;;;;;;5049150;28;20727;-75
2023/08/21 04:56:38;;;;;;;2.35;1.65;;;15.00;99.90;;;;;;5078535;28;20071;-76
2023/08/21 04:59:03;;;;;;;1.40;1.00;;;15.00;99.90;;;;;;5067969;28;20571;-75
2023/08/21 05:01:29;;;;;;;1.17;1.05;;;15.00;99.90;;;;;;5054344;28;20047;-74
2023/08/21 05:03:55;;;;;;;2.13;0.80;;;15.00;99.90;;;;;;5063603;28;20466;-74
2023/08/21 05:06:20;;;;;;;2.40;1.10;;;15.00;99.90;;;;;;5066085;28;20067;-75
2023/08/21 05:08:46;;;;;;;1.33;1.05;;;15.00;99.90;;;;;;5064583;28;20043;-75
2023/08/21 05:11:12;;;;;;;1.25;1.15;;;15.00;99.90;;;;;;5068119;28;20482;-76
2023/08/21 05:13:37;;;;;;;1.98;1.42;;;15.00;99.90;;;;;;5064771;28;20078;-76
2023/08/21 05:16:03;;;;;;;2.58;1.50;;;15.00;99.90;;;;;;5068559;28;20055;-75
2023/08/21 05:18:28;;;;;;;1.45;1.27;;;15.00;99.90;;;;;;5054001;28;20048;-74
2023/08/21 05:20:55;;;;;;;4.30;1.75;;;15.10;99.90;;;;;;5068149;28;20130;-75
2023/08/21 05:23:21;;;;;;;3.17;2.08;;;15.10;99.90;;;;;;5051155;28;20119;-74
2023/08/21 05:25:48;;;;;;;2.17;1.30;;;15.10;99.90;;;;;;5068196;28;20545;-75
2023/08/21 05:28:14;;;;;;;4.47;1.75;;;15.10;99.90;;;;;;5065595;28;20079;-75
2023/08/21 05:30:40;;;;;;;2.35;1.70;;;15.20;99.90;;;;;;5067899;28;20067;-75
2023/08/21 05:33:06;;;;;;;2.53;1.42;;;15.20;99.90;;;;;;5061996;28;20044;-74
2023/08/21 05:35:35;;;;;;;4.22;1.67;;;15.30;99.90;;;;;;5056863;28;20044;-74
2023/08/21 05:38:02;;;;;;;3.50;1.42;;;15.30;99.90;;;;;;5084582;28;20083;-75
2023/08/21 05:40:28;;;;;;;1.90;1.60;;;15.30;99.90;;;;;;5075409;28;20044;-75
2023/08/21 05:42:54;;;;;;;2.40;1.58;;;15.40;99.90;;;;;;5065740;28;20037;-74
2023/08/21 05:45:19;;;;;;;2.13;1.30;;;15.40;99.90;;;;;;5072168;28;20044;-74
2023/08/21 05:47:45;;;;;;;3.53;1.58;;;15.50;99.90;;;;;;5065625;28;20145;-73
2023/08/21 05:50:11;;;;;;;4.50;1.80;;;15.50;99.90;;;;;;5048519;28;20073;-74
2023/08/21 05:52:36;;;;;;;5.15;2.20;;;15.50;99.90;;;;;;5066169;28;20486;-74
2023/08/21 05:55:02;;;;;;;3.03;2.08;;;15.60;99.90;;;;;;5084372;28;20058;-74
2023/08/21 05:57:28;;;;;;;2.08;1.60;;;15.70;99.90;;;;;;5065483;28;20036;-73
2023/08/21 05:59:53;;;;;;;3.45;2.30;;;15.70;99.90;;;;;;5058202;28;20419;-71
2023/08/21 06:02:19;;;;;;;2.58;1.55;;;15.70;99.90;;;;;;5049695;28;20032;-74
2023/08/21 06:04:45;;;;;;;3.33;2.50;;;15.80;99.90;;;;;;5056989;28;20078;-73
2023/08/21 06:07:11;;;;;;;2.03;1.50;;;15.90;99.90;;;;;;5062887;28;20072;-73
2023/08/21 06:09:37;;;;;;;2.83;2.03;;;15.90;99.90;;;;;;5063793;28;20087;-75
2023/08/21 06:12:03;;;;;;;4.07;1.98;;;16.00;99.90;;;;;;5047261;28;20048;-75
2023/08/21 06:14:30;;;;;;;4.43;2.35;;;16.00;99.90;;;;;;5042794;28;20090;-75
2023/08/21 06:17:04;;;;;;;5.10;2.20;;;16.10;99.90;;;;;;5062187;28;20220;-75
2023/08/21 06:19:29;;;;;;;3.25;2.22;;;16.10;99.90;;;;;;5062102;28;20044;-74
2023/08/21 06:21:56;;;;;;;3.28;2.35;;;16.20;99.90;;;;;;5062394;28;20045;-75
2023/08/21 06:24:23;;;;;;;3.38;2.53;;;16.20;99.90;;;;;;5042838;28;20056;-75
2023/08/21 06:26:48;;;;;;;3.05;2.08;;;16.20;99.90;;;;;;5046689;28;20437;-75
2023/08/21 06:29:14;;;;;;;2.40;1.60;;;16.30;99.90;;;;;;5049516;28;20033;-76
2023/08/21 06:31:40;;;;;;;2.75;1.92;;;16.30;99.90;;;;;;5043810;28;20335;-75
2023/08/21 06:34:05;;;;;;;3.67;1.83;;;16.40;99.90;;;;;;5059468;28;20128;-75
2023/08/21 06:36:31;;;;;;;4.10;2.63;;;16.40;99.90;;;;;;5046480;28;20491;-75
2023/08/21 06:38:57;;;;;;;5.55;2.42;;;16.50;99.90;;;;;;5045076;28;20497;-75
2023/08/21 06:41:22;;;;;;;3.63;2.90;;;16.50;99.90;;;;;;5060546;28;20524;-75
2023/08/21 06:43:48;;;;;;;2.63;1.88;;;16.60;99.90;;;;;;5057428;28;20119;-75
2023/08/21 06:46:14;;;;;;;3.03;1.90;;;16.60;99.90;;;;;;5027718;28;20399;-74
2023/08/21 06:48:43;;;;;;;4.05;2.40;;;16.70;99.90;;;;;;5059279;28;20052;-75
2023/08/21 06:51:10;;;;;;;4.65;2.63;;;16.70;99.90;;;;;;5065108;28;20051;-76
2023/08/21 06:53:36;;;;;;;5.25;2.45;;;16.80;99.90;;;;;;5068844;28;20040;-75
2023/08/21 06:56:01;;;;;;;5.57;2.58;;;16.90;99.90;;;;;;5067482;28;20544;-75
2023/08/21 06:58:27;;;;;;;6.13;2.90;;;16.90;99.90;;;;;;5048507;28;20652;-76
2023/08/21 07:00:56;;;;;;;5.55;3.15;;;17.00;99.90;;;;;;5049277;28;20048;-75
2023/08/21 07:03:23;;;;;;;9.98;2.72;;;17.00;99.90;;;;;;5066561;28;20028;-74
2023/08/21 07:05:56;;;;;;;2.83;2.33;;;17.10;99.90;;;;;;5067813;28;20121;-75
2023/08/21 07:08:22;;;;;;;5.43;2.80;;;17.10;99.90;;;;;;5067749;28;20036;-75
2023/08/21 07:10:48;;;;;;;7.53;3.00;;;17.10;99.90;;;;;;5067448;28;20348;-76
2023/08/21 07:13:13;;;;;;;6.10;2.58;;;17.20;99.90;;;;;;5051343;28;20411;-75
2023/08/21 07:15:39;;;;;;;6.97;3.00;;;17.20;99.90;;;;;;5086017;28;20039;-75
2023/08/21 07:18:05;;;;;;;6.95;3.13;;;17.40;99.90;;;;;;5086049;28;20501;-75
2023/08/21 07:20:30;;;;;;;4.88;2.90;;;17.40;99.90;;;;;;5059161;28;20123;-75
2023/08/21 07:22:56;;;;;;;8.43;3.08;;;17.50;99.90;;;;;;5087269;28;20097;-75
2023/08/21 07:25:22;;;;;;;7.45;3.30;;;17.50;99.90;;;;;;5060313;28;20490;-75
2023/08/21 07:27:47;;;;;;;8.95;2.95;;;17.60;99.90;;;;;;5085919;28;20032;-75
2023/08/21 07:30:17;;;;;;;5.90;3.83;;;17.60;99.90;;;;;;5063122;28;20036;-76
2023/08/21 07:32:43;;;;;;;7.63;3.50;;;17.80;99.90;;;;;;5052267;28;20040;-75
2023/08/21 07:35:09;;;;;;;6.13;3.10;;;17.80;99.90;;;;;;5073253;28;20035;-74
2023/08/21 07:37:34;;;;;;;5.25;3.30;;;17.90;99.90;;;;;;5054976;28;20039;-73
2023/08/21 07:40:00;;;;;;;10.00;3.70;;;17.90;99.90;;;;;;5069911;28;20255;-75
2023/08/21 07:42:26;;;;;;;4.93;2.75;;;17.90;99.90;;;;;;5068433;28;20043;-76
2023/08/21 07:44:51;;;;;;;5.25;3.05;;;18.00;99.90;;;;;;5051673;28;20075;-75
2023/08/21 07:47:17;;;;;;;7.63;3.25;;;18.00;99.90;;;;;;5084323;28;20071;-73
2023/08/21 07:49:43;;;;;;;7.05;3.45;;;18.10;99.90;;;;;;5087707;28;20040;-75
2023/08/21 07:52:08;;;;;;;13.65;4.15;;;18.20;99.90;;;;;;5087763;28;20040;-76
2023/08/21 07:54:34;;;;;;;6.78;3.60;;;18.20;99.90;;;;;;5073309;28;20092;-75
2023/08/21 07:57:00;;;;;;;6.85;3.00;;;18.30;99.90;;;;;;5051993;28;20055;-77
2023/08/21 07:59:26;;;;;;;8.57;3.58;;;18.30;99.90;;;;;;5051021;28;20036;-77
2023/08/21 08:01:51;;;;;;;4.25;3.17;;;18.40;99.90;;;;;;5069852;28;20053;-75
2023/08/21 08:04:17;;;;;;;8.90;3.03;;;18.40;99.90;;;;;;5069707;28;20129;-76
2023/08/21 08:06:43;;;;;;;8.77;4.10;;;18.50;99.90;;;;;;5069498;28;20065;-75
2023/08/21 08:09:09;;;;;;;8.65;3.72;;;18.60;99.90;;;;;;5068524;28;20379;-75
2023/08/21 08:11:36;;;;;;;6.78;3.38;;;18.60;99.90;;;;;;5070072;28;20044;-75
2023/08/21 08:14:02;;;;;;;8.18;3.13;;;18.70;99.90;;;;;;5086883;28;20044;-76
2023/08/21 08:16:27;;;;;;;3.53;2.35;;;18.70;99.90;;;;;;5087372;28;20040;-75
2023/08/21 08:18:53;;;;;;;5.43;3.15;;;18.80;99.90;;;;;;5052955;28;20630;-76
2023/08/21 08:21:19;;;;;;;6.03;2.28;;;18.80;99.90;;;;;;5069200;28;20042;-75
2023/08/21 08:23:45;;;;;;;5.80;3.00;;;18.90;99.90;;;;;;5069997;28;20490;-74
2023/08/21 08:26:10;;;;;;;4.88;2.50;;;18.90;99.90;;;;;;5052336;28;20036;-74
2023/08/21 08:28:36;;;;;;;5.32;2.45;;;19.00;99.90;;;;;;5052492;28;20490;-75
2023/08/21 08:31:02;;;;;;;8.30;2.58;;;19.00;99.90;;;;;;5068817;28;20036;-75
2023/08/21 08:33:27;;;;;;;6.25;2.28;;;19.00;99.90;;;;;;5068990;28;20375;-74
2023/08/21 08:35:53;;;;;;;11.02;2.72;;;19.10;99.90;;;;;;5068379;28;20442;-74
2023/08/21 08:38:19;;;;;;;11.32;3.10;;;19.10;99.90;;;;;;5050857;28;20040;-74
2023/08/21 08:40:46;;;;;;;5.72;2.78;;;19.20;99.90;;;;;;5087062;28;20470;-76
2023/08/21 08:43:13;;;;;;;5.30;2.35;;;19.30;99.90;;;;;;5050867;28;20036;-77
2023/08/21 08:45:41;;;;;;;4.38;1.70;;;19.30;99.90;;;;;;5050680;28;20107;-76
2023/08/21 08:48:07;;;;;;;5.00;2.00;;;19.30;99.90;;;;;;5080086;28;20081;-81
2023/08/21 08:50:34;;;;;;;6.15;3.05;;;19.40;99.90;;;;;;5087308;28;20070;-84
2023/08/21 08:53:01;;;;;;;6.75;2.97;;;19.40;99.90;;;;;;5084831;28;20044;-77
2023/08/21 08:55:26;;;;;;;13.13;2.80;;;19.50;99.90;;;;;;5090563;28;20075;-78
2023/08/21 08:57:53;;;;;;;7.82;2.55;;;19.50;99.90;;;;;;5093569;28;20070;-77
2023/08/21 09:00:20;;;;;;;6.75;2.10;;;19.50;99.90;;;;;;5080748;28;20028;-77
2023/08/21 09:02:46;;;;;;;5.45;2.50;;;19.50;99.90;;;;;;5064007;28;20063;-76
2023/08/21 09:05:12;;;;;;;3.63;2.45;;;19.60;99.90;;;;;;5064532;28;20040;-76
2023/08/21 09:07:38;;;;;;;6.93;3.10;;;19.60;99.90;;;;;;5082298;28;20051;-76
2023/08/21 09:10:12;;;;;;;4.10;2.40;;;19.70;99.90;;;;;;5074393;28;20036;-76
2023/08/21 09:12:38;;;;;;;6.40;3.35;;;19.70;99.90;;;;;;5067684;28;20067;-77
2023/08/21 09:15:08;;;;;;;8.52;2.70;;;19.70;99.90;;;;;;5084379;28;20122;-75
2023/08/21 09:17:33;;;;;;;6.05;2.00;;;19.80;99.90;;;;;;5050219;28;20044;-76
2023/08/21 09:20:07;;;;;;;6.93;2.95;;;19.80;99.90;;;;;;5059129;28;20394;-75
2023/08/21 09:22:33;;;;;;;8.20;2.25;;;19.90;99.90;;;;;;5068020;28;20040;-76
2023/08/21 09:25:10;;;;;;;3.75;2.00;;;19.90;99.90;;;;;;5051661;28;20634;-76
2023/08/21 09:27:39;;;;;;;3.08;1.70;;;20.00;99.90;;;;;;5066162;28;20521;-77
2023/08/21 09:30:08;;;;;;;7.88;2.17;;;20.10;99.90;;;;;;5068212;28;20042;-77
2023/08/21 09:32:56;;;;;;;6.88;2.35;;;20.10;99.90;;;;;;5085336;28;20094;-78
2023/08/21 09:35:23;;;;;;;3.92;2.20;;;20.20;99.90;;;;;;5085574;28;20040;-77
2023/08/21 09:37:52;;;;;;;5.00;1.38;;;20.30;99.90;;;;;;5049088;28;20032;-77
2023/08/21 09:40:19;;;;;;;3.90;1.10;;;20.30;99.90;;;;;;5041317;28;20414;-77
2023/08/21 09:42:44;;;;;;;7.05;1.73;;;20.30;99.90;;;;;;5067296;28;20040;-77
2023/08/21 09:45:10;;;;;;;4.80;1.60;;;20.30;99.90;;;;;;5067890;28;20699;-77
2023/08/21 09:47:39;;;;;;;3.03;1.10;;;20.30;99.90;;;;;;5086583;28;20498;-77
2023/08/21 09:50:05;;;;;;;3.08;1.00;;;20.40;99.90;;;;;;5065252;28;20036;-77
2023/08/21 09:52:31;;;;;;;1.05;0.88;;;20.40;99.90;;;;;;5055009;28;20127;-77
2023/08/21 09:54:57;;;;;;;3.10;0.93;;;20.50;99.90;;;;;;5067964;28;20127;-76
2023/08/21 09:57:23;;;;;;;1.58;0.82;;;20.50;99.90;;;;;;5066584;28;20040;-76
2023/08/21 09:59:54;;;;;;;2.42;1.08;;;20.50;99.90;;;;;;5067818;28;20123;-79
2023/08/21 10:02:21;;;;;;;3.70;0.90;;;20.60;99.90;;;;;;5076260;28;20036;-79
2023/08/21 10:04:49;;;;;;;1.42;1.33;;;20.70;99.90;;;;;;5050868;28;20036;-79
2023/08/21 10:07:19;;;;;;;1.80;1.15;;;20.70;99.90;;;;;;5051650;28;20450;-80
2023/08/21 10:09:45;;;;;;;4.00;1.05;;;20.80;99.90;;;;;;5071948;28;20380;-79
2023/08/21 10:12:14;;;;;;;1.70;1.00;;;20.80;99.90;;;;;;5066784;28;20044;-79
2023/08/21 10:14:40;;;;;;;1.08;0.70;;;20.80;99.90;;;;;;5067873;28;20127;-78
2023/08/21 10:17:07;;;;;;;2.45;1.23;;;20.80;99.90;;;;;;5072426;28;20524;-78
2023/08/21 10:19:35;;;;;;;2.60;1.08;;;20.80;99.90;;;;;;5086923;28;20060;-79
2023/08/21 10:22:03;;;;;;;4.03;1.60;;;20.90;99.90;;;;;;5067109;28;20040;-79
2023/08/21 10:24:37;;;;;;;1.25;1.13;;;20.90;99.90;;;;;;5085008;28;20112;-79
2023/08/21 10:27:03;;;;;;;1.58;0.95;;;21.00;99.90;;;;;;5087852;28;20063;-78
2023/08/21 10:29:31;;;;;;;1.52;1.05;;;21.00;99.90;;;;;;5066638;28;20629;-77
2023/08/21 10:32:02;;;;;;;2.25;1.13;;;21.10;99.90;;;;;;5046816;28;20032;-77
2023/08/21 10:34:38;;;;;;;2.83;1.25;;;21.10;99.90;;;;;;5066647;28;20418;-77
2023/08/21 10:37:07;;;;;;;3.85;1.65;;;21.10;99.90;;;;;;5049969;28;20064;-75
2023/08/21 10:39:35;;;;;;;1.30;1.20;;;21.10;99.90;;;;;;5085451;28;20051;-77
2023/08/21 10:42:09;;;;;;;3.78;1.17;;;21.00;99.90;;;;;;5083615;28;20047;-77
2023/08/21 10:44:45;;;;;;;1.80;1.13;;;21.10;99.90;;;;;;5066962;28;20047;-78
2023/08/21 10:47:25;;;;;;;3.63;1.25;;;21.10;99.90;;;;;;5066866;28;20047;-80
2023/08/21 10:49:58;;;;;;;10.25;1.50;;;21.20;99.90;;;;;;5085565;28;20040;-76
2023/08/21 10:52:29;;;;;;;1.10;0.98;;;21.30;99.90;;;;;;5084208;28;20032;-79
2023/08/21 10:54:59;;;;;;;1.88;1.00;;;21.40;99.90;;;;;;5066868;28;20050;-77
2023/08/21 10:57:27;;;;;;;5.18;1.67;;;21.40;99.90;;;;;;5047094;28;20044;-84
2023/08/21 11:00:20;;;;;;;6.97;2.22;;;21.50;99.90;;;;;;5067399;28;20119;-82
2023/08/21 11:02:47;;;;;;;3.15;1.23;;;21.50;99.90;;;;;;5051960;28;20076;-85
2023/08/21 11:05:14;;;;;;;3.55;1.45;;;21.60;99.90;;;;;;5067760;28;20082;-84
2023/08/21 11:07:48;;;;;;;3.72;2.08;;;21.60;99.90;;;;;;5094402;28;20040;-91
2023/08/21 11:10:17;;;;;;;5.10;1.38;;;21.70;99.90;;;;;;5084350;28;20056;-81
2023/08/21 11:12:55;;;;;;;5.50;1.30;;;21.70;99.90;;;;;;5083801;28;20036;-77
2023/08/21 11:15:21;;;;;;;1.45;0.80;;;21.60;99.90;;;;;;5085196;28;20086;-79
2023/08/21 11:17:58;;;;;;;4.60;1.50;;;21.50;99.90;;;;;;5085207;28;20101;-76
2023/08/21 11:20:34;;;;;;;2.80;1.00;;;21.40;99.90;;;;;;5071860;28;20143;-77
2023/08/21 11:23:02;;;;;;;1.10;1.00;;;21.40;99.90;;;;;;5098680;28;20059;-76
2023/08/21 11:25:29;;;;;;;2.03;1.10;;;21.40;99.90;;;;;;5065662;28;20055;-75
2023/08/21 11:27:55;;;;;;;3.42;1.30;;;21.50;99.90;;;;;;5083196;28;20047;-76
2023/08/21 11:30:24;;;;;;;1.40;0.90;;;21.60;99.90;;;;;;5087921;28;20044;-77
2023/08/21 11:33:11;;;;;;;3.22;0.90;;;21.70;99.90;;;;;;5085904;28;20032;-76
2023/08/21 11:35:40;;;;;;;2.80;0.88;;;21.70;99.90;;;;;;5089448;28;20040;-77
2023/08/21 11:38:06;;;;;;;3.10;1.10;;;21.80;99.90;;;;;;5090056;28;20569;-77
2023/08/21 11:40:35;;;;;;;2.00;0.90;;;21.90;99.90;;;;;;5068691;28;20482;-76
2023/08/21 11:43:02;;;;;;;1.95;0.98;;;22.00;99.90;;;;;;5095990;28;20054;-77
2023/08/21 11:45:27;;;;;;;3.35;1.50;;;22.10;99.90;;;;;;5091303;28;20040;-78
2023/08/21 11:47:56;;;;;;;2.97;1.48;;;22.10;99.90;;;;;;5094076;28;20112;-78
2023/08/21 11:50:22;;;;;;;4.00;2.08;;;22.10;99.90;;;;;;5088080;28;20486;-78
2023/08/21 11:52:52;;;;;;;3.42;1.77;;;22.10;99.90;;;;;;5087788;28;20402;-78
2023/08/21 11:55:18;;;;;;;3.83;1.92;;;22.10;99.90;;;;;;5065220;28;20440;-79
2023/08/21 11:57:48;;;;;;;3.53;1.70;;;22.10;99.90;;;;;;5081128;28;20079;-83
2023/08/21 12:00:18;;;;;;;5.90;1.60;;;22.10;99.90;;;;;;5080468;28;20040;-83
2023/08/21 12:02:53;;;;;;;2.88;1.65;;;22.10;99.90;;;;;;5064288;28;20052;-80
2023/08/21 12:05:19;;;;;;;9.93;2.53;;;22.10;99.90;;;;;;5072709;28;20044;-79
2023/08/21 12:07:45;;;;;;;5.10;2.05;;;22.10;99.90;;;;;;5068110;28;20085;-80
2023/08/21 12:10:11;;;;;;;4.88;1.63;;;22.20;99.90;;;;;;5054694;28;20051;-81
2023/08/21 12:12:36;;;;;;;1.73;1.05;;;22.10;99.90;;;;;;5075390;28;20075;-80
2023/08/21 12:15:02;;;;;;;2.42;1.30;;;22.20;99.90;;;;;;5076789;28;20051;-81
2023/08/21 12:17:28;;;;;;;1.98;1.30;;;22.10;99.90;;;;;;5093181;28;20055;-81
2023/08/21 12:19:53;;;;;;;2.05;0.90;;;22.10;99.90;;;;;;5094664;28;20036;-81
2023/08/21 12:22:19;;;;;;;4.10;1.85;;;22.10;99.90;;;;;;5072349;28;20120;-79
2023/08/21 12:24:45;;;;;;;5.00;1.80;;;22.10;99.90;;;;;;5073186;28;20036;-78
2023/08/21 12:27:11;;;;;;;4.90;2.47;;;22.10;99.90;;;;;;5076648;28;20397;-80
2023/08/21 12:29:36;;;;;;;2.80;1.50;;;22.10;99.90;;;;;;5070201;28;20074;-80
2023/08/21 12:32:03;;;;;;;4.25;2.10;;;22.10;99.90;;;;;;5066676;28;20035;-81
2023/08/21 12:34:29;;;;;;;3.15;2.03;;;22.10;99.90;;;;;;5076415;28;20090;-81
2023/08/21 12:36:55;;;;;;;7.25;3.13;;;22.10;99.90;;;;;;5087572;28;20067;-78
2023/08/21 12:39:21;;;;;;;9.40;3.22;;;22.20;99.90;;;;;;5070038;28;20044;-79
2023/08/21 12:41:48;;;;;;;8.07;2.40;;;22.20;99.90;;;;;;5088200;28;20127;-75
2023/08/21 12:44:14;;;;;;;9.02;2.10;;;22.30;99.90;;;;;;5087694;28;20048;-80